createdAt,value
2017-11-01T00:00:33.005Z,8.20
2017-11-01T00:03:04.695Z,8.20
2017-11-01T00:05:35.575Z,8.18
2017-11-01T00:08:10.763Z,8.16
2017-11-01T00:10:41.562Z,8.17
2017-11-01T00:13:12.303Z,8.14
2017-11-01T00:15:43.616Z,8.12
2017-11-01T00:18:14.806Z,8.19
2017-11-01T00:20:53.283Z,8.11
2017-11-01T00:23:26.437Z,8.14
2017-11-01T00:26:01.512Z,8.14
2017-11-01T00:28:33.306Z,8.10
2017-11-01T00:31:06.557Z,8.10
2017-11-01T00:33:40.644Z,8.13
2017-11-01T00:36:18.120Z,8.10
2017-11-01T00:38:51.696Z,8.04
2017-11-01T00:41:23.715Z,7.97
2017-11-01T00:43:55.279Z,7.88
2017-11-01T00:46:26.278Z,7.93
2017-11-01T00:48:57.015Z,7.89
2017-11-01T00:51:27.812Z,7.89
2017-11-01T00:53:58.791Z,7.93
2017-11-01T00:56:30.046Z,7.89
2017-11-01T00:59:01.933Z,7.79
2017-11-01T01:01:32.522Z,7.83
2017-11-01T01:04:03.208Z,7.79
2017-11-01T01:06:33.853Z,7.83
2017-11-01T01:09:05.440Z,7.83
2017-11-01T01:11:37.134Z,7.79
2017-11-01T01:14:07.901Z,7.77
2017-11-01T01:16:39.731Z,7.73
2017-11-01T01:19:10.999Z,7.73
2017-11-01T01:21:41.757Z,7.80
2017-11-01T01:24:15.306Z,7.72
2017-11-01T01:26:49.175Z,7.74
2017-11-01T01:29:21.238Z,7.72
2017-11-01T01:31:53.767Z,7.71
2017-11-01T01:34:26.469Z,7.72
2017-11-01T01:36:57.611Z,7.74
2017-11-01T01:39:28.964Z,7.69
2017-11-01T01:42:02.639Z,7.68
2017-11-01T01:44:34.073Z,7.66
2017-11-01T01:47:10.620Z,7.64
2017-11-01T01:49:41.782Z,7.66
2017-11-01T01:52:12.533Z,7.67
2017-11-01T01:54:43.915Z,7.64
2017-11-01T01:57:14.599Z,7.60
2017-11-01T01:59:49.173Z,7.62
2017-11-01T02:02:20.649Z,7.60
2017-11-01T02:04:53.468Z,7.64
2017-11-01T02:07:24.600Z,7.63
2017-11-01T02:09:55.483Z,7.64
2017-11-01T02:12:28.164Z,7.61
2017-11-01T02:15:00.198Z,7.61
2017-11-01T02:17:30.840Z,7.59
2017-11-01T02:20:04.074Z,7.58
2017-11-01T02:22:35.483Z,7.60
2017-11-01T02:25:08.850Z,7.56
2017-11-01T02:27:40.269Z,7.55
2017-11-01T02:30:11.117Z,7.56
2017-11-01T02:32:43.029Z,7.59
2017-11-01T02:35:14.567Z,7.57
2017-11-01T02:37:45.173Z,7.58
2017-11-01T02:40:16.438Z,7.56
2017-11-01T02:42:49.362Z,7.58
2017-11-01T02:45:21.662Z,7.63
2017-11-01T02:47:53.190Z,7.61
2017-11-01T02:50:23.864Z,7.64
2017-11-01T02:52:55.032Z,7.62
2017-11-01T02:55:26.300Z,7.63
2017-11-01T02:57:58.854Z,7.61
2017-11-01T03:00:32.505Z,7.60
2017-11-01T03:03:03.400Z,7.63
2017-11-01T03:05:34.107Z,7.65
2017-11-01T03:08:05.363Z,7.65
2017-11-01T03:10:36.228Z,7.65
2017-11-01T03:13:07.621Z,7.69
2017-11-01T03:15:38.695Z,7.70
2017-11-01T03:18:09.390Z,7.69
2017-11-01T03:20:40.693Z,7.70
2017-11-01T03:23:11.591Z,7.68
2017-11-01T03:25:43.348Z,7.66
2017-11-01T03:28:14.592Z,7.68
2017-11-01T03:30:49.332Z,7.69
2017-11-01T03:33:20.109Z,7.68
2017-11-01T03:35:53.677Z,7.64
2017-11-01T03:38:26.479Z,7.71
2017-11-01T03:40:57.754Z,7.65
2017-11-01T03:43:29.141Z,7.68
2017-11-01T03:46:02.924Z,7.67
2017-11-01T03:48:36.087Z,7.64
2017-11-01T03:51:07.854Z,7.63
2017-11-01T03:53:39.294Z,7.63
2017-11-01T03:56:10.843Z,7.69
2017-11-01T03:58:48.550Z,7.69
2017-11-01T04:01:19.234Z,7.68
2017-11-01T04:03:55.600Z,7.66
2017-11-01T04:06:27.926Z,7.70
2017-11-01T04:08:59.913Z,7.68
2017-11-01T04:11:30.643Z,7.66
2017-11-01T04:14:01.723Z,7.68
2017-11-01T04:16:33.437Z,7.67
2017-11-01T04:19:09.560Z,7.66
2017-11-01T04:21:42.258Z,7.63
2017-11-01T04:24:13.809Z,7.65
2017-11-01T04:26:44.405Z,7.70
2017-11-01T04:29:15.552Z,7.72
2017-11-01T04:31:49.618Z,7.67
2017-11-01T04:34:21.034Z,7.69
2017-11-01T04:36:57.846Z,7.67
2017-11-01T04:39:30.564Z,7.67
2017-11-01T04:42:01.990Z,7.67
2017-11-01T04:44:34.510Z,7.62
2017-11-01T04:47:05.443Z,7.66
2017-11-01T04:49:38.652Z,7.64
2017-11-01T04:52:10.271Z,7.64
2017-11-01T04:54:41.502Z,7.66
2017-11-01T04:57:13.114Z,7.65
2017-11-01T04:59:48.273Z,7.56
2017-11-01T05:02:26.671Z,7.54
2017-11-01T05:04:58.491Z,7.53
2017-11-01T05:07:30.040Z,7.57
2017-11-01T05:10:01.230Z,7.56
2017-11-01T05:12:31.750Z,7.56
2017-11-01T05:15:02.368Z,7.57
2017-11-01T05:17:33.374Z,7.56
2017-11-01T05:20:04.766Z,7.56
2017-11-01T05:22:39.987Z,7.57
2017-11-01T05:25:17.384Z,7.55
2017-11-01T05:27:54.140Z,7.55
2017-11-01T05:30:26.106Z,7.58
2017-11-01T05:33:01.225Z,7.58
2017-11-01T05:35:32.276Z,7.58
2017-11-01T05:38:10.872Z,7.56
2017-11-01T05:40:41.722Z,7.57
2017-11-01T05:43:12.775Z,7.61
2017-11-01T05:45:50.585Z,7.56
2017-11-01T05:48:21.613Z,7.58
2017-11-01T05:50:53.614Z,7.61
2017-11-01T05:53:24.510Z,7.58
2017-11-01T05:56:06.785Z,7.61
2017-11-01T05:58:37.967Z,7.62
2017-11-01T06:01:10.426Z,7.64
2017-11-01T06:06:19.285Z,7.65
2017-11-01T06:08:52.576Z,7.62
2017-11-01T06:11:23.219Z,7.63
2017-11-01T06:13:54.817Z,7.61
2017-11-01T06:16:25.470Z,7.62
2017-11-01T06:18:56.079Z,7.65
2017-11-01T06:21:26.739Z,7.65
2017-11-01T06:24:00.419Z,7.70
2017-11-01T06:26:32.203Z,7.66
2017-11-01T06:29:03.107Z,7.69
2017-11-01T06:31:34.626Z,7.70
2017-11-01T06:34:07.600Z,7.73
2017-11-01T06:36:38.654Z,7.75
2017-11-01T06:39:09.465Z,7.71
2017-11-01T06:41:41.495Z,7.80
2017-11-01T06:44:12.277Z,7.78
2017-11-01T06:46:45.028Z,7.76
2017-11-01T06:49:16.970Z,7.82
2017-11-01T06:51:50.263Z,7.84
2017-11-01T06:54:23.810Z,7.84
2017-11-01T06:56:54.975Z,7.89
2017-11-01T06:59:25.529Z,7.85
2017-11-01T07:01:56.169Z,7.90
2017-11-01T07:04:29.479Z,7.88
2017-11-01T07:07:03.235Z,7.88
2017-11-01T07:09:51.791Z,7.91
2017-11-01T07:12:22.623Z,7.94
2017-11-01T07:14:54.063Z,7.96
2017-11-01T07:17:25.366Z,7.96
2017-11-01T07:19:56.254Z,7.95
2017-11-01T07:22:27.862Z,7.99
2017-11-01T07:25:03.880Z,8.00
2017-11-01T07:27:38.197Z,8.03
2017-11-01T07:30:14.069Z,8.06
2017-11-01T07:32:55.051Z,8.10
2017-11-01T07:35:35.001Z,8.09
2017-11-01T07:40:44.448Z,8.14
2017-11-01T07:43:16.071Z,8.15
2017-11-01T07:45:46.536Z,8.14
2017-11-01T07:48:17.672Z,8.14
2017-11-01T07:50:50.368Z,8.12
2017-11-01T07:53:21.475Z,8.13
2017-11-01T07:55:53.524Z,8.16
2017-11-01T07:58:24.552Z,8.12
2017-11-01T08:00:55.939Z,8.17
2017-11-01T08:03:33.024Z,8.18
2017-11-01T08:06:08.536Z,8.27
2017-11-01T08:08:42.484Z,8.24
2017-11-01T08:11:13.244Z,8.22
2017-11-01T08:13:47.732Z,8.25
2017-11-01T08:16:22.938Z,8.26
2017-11-01T08:18:58.690Z,8.26
2017-11-01T08:21:33.216Z,8.27
2017-11-01T08:24:06.618Z,8.30
2017-11-01T08:26:39.427Z,8.30
2017-11-01T08:29:11.984Z,8.32
2017-11-01T08:31:42.892Z,8.37
2017-11-01T08:34:14.797Z,8.34
2017-11-01T08:36:47.218Z,8.38
2017-11-01T08:39:18.449Z,8.40
2017-11-01T08:41:52.738Z,8.47
2017-11-01T08:44:26.948Z,8.48
2017-11-01T08:46:58.863Z,8.51
2017-11-01T08:49:29.931Z,8.48
2017-11-01T08:52:03.008Z,8.56
2017-11-01T08:54:33.810Z,8.55
2017-11-01T08:57:06.340Z,8.59
2017-11-01T08:59:39.076Z,8.63
2017-11-01T09:02:09.967Z,8.66
2017-11-01T09:04:42.022Z,8.66
2017-11-01T09:07:13.016Z,8.66
2017-11-01T09:09:50.217Z,8.72
2017-11-01T09:12:21.025Z,8.75
2017-11-01T09:14:54.503Z,8.75
2017-11-01T09:17:27.213Z,8.75
2017-11-01T09:19:58.598Z,8.80
2017-11-01T09:22:29.626Z,8.84
2017-11-01T09:25:00.465Z,8.80
2017-11-01T09:27:31.130Z,8.83
2017-11-01T09:30:05.025Z,8.79
2017-11-01T09:32:35.838Z,8.78
2017-11-01T09:35:10.696Z,8.80
2017-11-01T09:37:41.632Z,8.88
2017-11-01T09:40:12.429Z,8.87
2017-11-01T09:42:44.447Z,9.04
2017-11-01T09:45:15.359Z,9.07
2017-11-01T09:47:48.301Z,9.13
2017-11-01T09:50:19.616Z,9.13
2017-11-01T09:52:52.759Z,9.18
2017-11-01T09:55:23.986Z,9.22
2017-11-01T09:57:55.182Z,9.25
2017-11-01T10:00:27.064Z,9.21
2017-11-01T10:02:58.684Z,9.23
2017-11-01T10:05:30.943Z,9.34
2017-11-01T10:08:02.649Z,9.37
2017-11-01T10:10:33.357Z,9.27
2017-11-01T10:13:04.087Z,9.32
2017-11-01T10:15:35.380Z,9.38
2017-11-01T10:18:06.624Z,9.37
2017-11-01T10:20:37.867Z,9.48
2017-11-01T10:23:09.436Z,9.46
2017-11-01T10:25:40.651Z,9.52
2017-11-01T10:28:11.450Z,9.61
2017-11-01T10:30:42.302Z,9.61
2017-11-01T10:33:13.126Z,9.72
2017-11-01T10:35:44.170Z,9.79
2017-11-01T10:38:15.479Z,9.83
2017-11-01T10:40:48.313Z,10.05
2017-11-01T10:43:19.830Z,10.04
2017-11-01T10:45:52.613Z,10.13
2017-11-01T10:48:23.275Z,10.16
2017-11-01T10:50:54.586Z,10.23
2017-11-01T10:53:25.294Z,10.43
2017-11-01T10:55:56.279Z,10.40
2017-11-01T10:58:27.236Z,10.44
2017-11-01T11:00:58.744Z,10.31
2017-11-01T11:03:30.593Z,10.22
2017-11-01T11:06:02.711Z,10.17
2017-11-01T11:08:33.675Z,10.30
2017-11-01T11:11:06.306Z,10.12
2017-11-01T11:13:37.668Z,10.14
2017-11-01T11:16:10.538Z,10.11
2017-11-01T11:18:42.244Z,10.13
2017-11-01T11:21:13.087Z,10.08
2017-11-01T11:23:44.226Z,10.05
2017-11-01T11:26:15.375Z,10.01
2017-11-01T11:28:50.097Z,10.03
2017-11-01T11:31:21.102Z,10.17
2017-11-01T11:33:53.587Z,10.25
2017-11-01T11:36:24.146Z,10.33
2017-11-01T11:38:54.929Z,10.34
2017-11-01T11:41:25.940Z,10.37
2017-11-01T11:43:57.292Z,10.49
2017-11-01T11:46:28.697Z,10.55
2017-11-01T11:49:00.980Z,10.58
2017-11-01T11:51:32.932Z,10.56
2017-11-01T11:54:05.018Z,10.52
2017-11-01T11:56:35.958Z,10.48
2017-11-01T11:59:08.281Z,10.48
2017-11-01T12:01:39.606Z,10.51
2017-11-01T12:04:10.911Z,10.61
2017-11-01T12:06:42.170Z,10.66
2017-11-01T12:09:21.297Z,10.72
2017-11-01T12:11:55.247Z,10.71
2017-11-01T12:14:56.048Z,10.87
2017-11-01T12:18:04.722Z,10.81
2017-11-01T12:21:20.910Z,10.84
2017-11-01T12:29:53.408Z,10.94
2017-11-01T12:32:31.892Z,11.02
2017-11-01T12:35:18.885Z,11.07
2017-11-01T12:38:04.661Z,11.04
2017-11-01T12:40:38.683Z,11.01
2017-11-01T12:43:43.081Z,11.03
2017-11-01T12:46:20.294Z,11.12
2017-11-01T12:48:58.364Z,11.14
2017-11-01T12:51:33.362Z,11.22
2017-11-01T12:54:33.957Z,11.13
2017-11-01T12:57:06.965Z,11.36
2017-11-01T12:59:43.819Z,11.46
2017-11-01T13:02:21.223Z,11.38
2017-11-01T13:04:59.735Z,11.40
2017-11-01T13:07:32.330Z,11.33
2017-11-01T13:10:16.118Z,11.39
2017-11-01T13:12:53.077Z,11.34
2017-11-01T13:15:32.891Z,11.14
2017-11-01T13:18:10.509Z,11.16
2017-11-01T13:20:42.315Z,11.21
2017-11-01T13:23:15.074Z,11.41
2017-11-01T13:25:52.547Z,11.33
2017-11-01T13:31:56.532Z,11.59
2017-11-01T13:34:28.714Z,11.56
2017-11-01T13:37:02.548Z,11.52
2017-11-01T13:39:42.448Z,11.56
2017-11-01T13:42:30.914Z,11.62
2017-11-01T13:48:09.388Z,11.40
2017-11-01T13:50:42.197Z,11.42
2017-11-01T13:53:14.064Z,11.43
2017-11-01T13:55:45.163Z,11.45
2017-11-01T13:58:17.034Z,11.55
2017-11-01T14:00:51.350Z,11.53
2017-11-01T14:03:22.429Z,11.52
2017-11-01T14:05:54.047Z,11.73
2017-11-01T14:08:24.967Z,11.66
2017-11-01T14:10:57.264Z,11.61
2017-11-01T14:13:28.627Z,11.56
2017-11-01T14:15:59.559Z,11.64
2017-11-01T14:18:33.166Z,11.62
2017-11-01T14:21:05.299Z,11.48
2017-11-01T14:23:39.000Z,11.49
2017-11-01T14:26:12.315Z,11.52
2017-11-01T14:28:47.092Z,11.53
2017-11-01T14:31:19.860Z,11.65
2017-11-01T14:33:55.646Z,11.59
2017-11-01T14:36:27.841Z,11.68
2017-11-01T14:39:00.143Z,11.53
2017-11-01T14:41:32.080Z,11.65
2017-11-01T14:44:04.729Z,11.72
2017-11-01T14:46:36.835Z,11.67
2017-11-01T14:49:09.090Z,11.65
2017-11-01T14:51:41.524Z,11.63
2017-11-01T14:54:14.227Z,11.55
2017-11-01T14:56:46.538Z,11.51
2017-11-01T14:59:21.019Z,11.48
2017-11-01T15:01:58.896Z,11.39
2017-11-01T15:04:30.547Z,11.31
2017-11-01T15:07:03.180Z,11.27
2017-11-01T15:09:35.837Z,11.18
2017-11-01T15:12:07.719Z,11.07
2017-11-01T15:14:40.580Z,11.08
2017-11-01T15:17:25.038Z,10.94
2017-11-01T15:20:06.345Z,10.92
2017-11-01T15:22:39.717Z,10.83
2017-11-01T15:25:11.242Z,10.79
2017-11-01T15:27:50.331Z,10.71
2017-11-01T15:30:31.778Z,10.76
2017-11-01T15:33:07.423Z,10.67
2017-11-01T15:35:50.417Z,10.64
2017-11-01T15:38:26.489Z,10.60
2017-11-01T15:41:01.146Z,10.55
2017-11-01T15:43:43.761Z,10.51
2017-11-01T15:46:22.737Z,10.53
2017-11-01T15:48:57.869Z,10.46
2017-11-01T15:51:30.871Z,10.42
2017-11-01T15:54:09.915Z,10.37
2017-11-01T15:56:41.443Z,10.37
2017-11-01T15:59:39.876Z,10.34
2017-11-01T16:02:12.449Z,10.23
2017-11-01T16:04:44.107Z,10.22
2017-11-01T16:07:21.832Z,10.18
2017-11-01T16:09:59.632Z,10.14
2017-11-01T16:12:31.917Z,10.13
2017-11-01T16:15:05.681Z,10.05
2017-11-01T16:17:38.242Z,10.06
2017-11-01T16:20:12.802Z,10.01
2017-11-01T16:22:49.684Z,10.02
2017-11-01T16:25:20.803Z,9.99
2017-11-01T16:27:57.592Z,9.99
2017-11-01T16:30:30.420Z,9.96
2017-11-01T16:33:06.355Z,9.99
2017-11-01T16:35:40.045Z,9.98
2017-11-01T16:38:13.346Z,9.97
2017-11-01T16:40:49.986Z,9.96
2017-11-01T16:43:25.305Z,10.02
2017-11-01T16:45:56.563Z,9.99
2017-11-01T16:48:29.078Z,10.04
2017-11-01T16:51:00.315Z,10.02
2017-11-01T16:53:33.319Z,10.03
2017-11-01T16:56:07.855Z,10.03
2017-11-01T16:58:41.101Z,10.05
2017-11-01T17:01:12.514Z,10.04
2017-11-01T17:03:45.554Z,10.00
2017-11-01T17:06:18.500Z,9.99
2017-11-01T17:08:53.972Z,10.00
2017-11-01T17:11:27.460Z,9.95
2017-11-01T17:14:01.749Z,9.90
2017-11-01T17:16:33.808Z,9.86
2017-11-01T17:19:05.041Z,9.94
2017-11-01T17:21:36.289Z,9.89
2017-11-01T17:24:09.094Z,9.90
2017-11-01T17:26:40.696Z,9.81
2017-11-01T17:29:14.329Z,9.80
2017-11-01T17:31:55.986Z,9.79
2017-11-01T17:37:26.774Z,9.86
2017-11-01T17:42:52.511Z,9.82
2017-11-01T17:45:24.049Z,9.79
2017-11-01T17:47:56.984Z,9.75
2017-11-01T17:50:28.543Z,9.76
2017-11-01T17:52:59.981Z,9.72
2017-11-01T17:55:33.315Z,9.68
2017-11-01T17:58:07.312Z,9.69
2017-11-01T18:00:39.825Z,9.60
2017-11-01T18:03:12.663Z,9.63
2017-11-01T18:05:45.165Z,9.61
2017-11-01T18:08:17.788Z,9.56
2017-11-01T18:10:53.778Z,9.57
2017-11-01T18:13:31.623Z,9.53
2017-11-01T18:16:06.132Z,9.46
2017-11-01T18:18:37.918Z,9.46
2017-11-01T18:21:10.207Z,9.41
2017-11-01T18:23:42.294Z,9.41
2017-11-01T18:26:15.389Z,9.39
2017-11-01T18:28:49.478Z,9.27
2017-11-01T18:31:21.812Z,9.18
2017-11-01T18:33:54.807Z,9.26
2017-11-01T18:36:26.726Z,9.29
2017-11-01T18:39:00.128Z,9.27
2017-11-01T18:41:35.549Z,8.94
2017-11-01T18:44:08.377Z,8.86
2017-11-01T18:49:30.515Z,8.93
2017-11-01T18:52:19.608Z,8.91
2017-11-01T18:55:13.091Z,8.98
2017-11-01T18:57:44.222Z,9.02
2017-11-01T19:00:19.362Z,9.07
2017-11-01T19:03:01.024Z,8.94
2017-11-01T19:05:39.198Z,8.90
2017-11-01T19:08:16.126Z,8.81
2017-11-01T19:11:15.031Z,8.91
2017-11-01T19:13:47.698Z,8.77
2017-11-01T19:16:22.948Z,8.66
2017-11-01T19:18:59.483Z,8.75
2017-11-01T19:21:32.468Z,8.78
2017-11-01T19:24:03.833Z,8.83
2017-11-01T19:26:35.882Z,8.41
2017-11-01T19:32:49.730Z,8.42
2017-11-01T19:35:23.057Z,8.50
2017-11-01T19:37:54.124Z,8.58
2017-11-01T19:40:28.386Z,8.08
2017-11-01T19:42:59.563Z,8.25
2017-11-01T19:45:33.682Z,8.40
2017-11-01T19:48:06.781Z,8.46
2017-11-01T19:50:39.915Z,8.33
2017-11-01T19:58:16.172Z,8.33
2017-11-01T20:00:54.130Z,8.09
2017-11-01T20:03:26.076Z,8.20
2017-11-01T20:05:57.030Z,8.12
2017-11-01T20:08:47.661Z,7.99
2017-11-01T20:11:23.668Z,8.19
2017-11-01T20:14:33.203Z,8.18
2017-11-01T20:17:05.683Z,8.15
2017-11-01T20:19:37.149Z,8.19
2017-11-01T20:22:14.193Z,8.16
2017-11-01T20:24:52.169Z,8.33
2017-11-01T20:27:23.355Z,8.42
2017-11-01T20:29:59.646Z,8.34
2017-11-01T20:35:25.718Z,8.26
2017-11-01T20:37:57.352Z,8.37
2017-11-01T20:40:29.978Z,8.43
2017-11-01T20:43:04.142Z,8.44
2017-11-01T20:45:39.277Z,8.53
2017-11-01T20:50:59.167Z,8.60
2017-11-01T20:53:31.924Z,8.65
2017-11-01T20:56:03.679Z,8.68
2017-11-01T20:58:34.880Z,8.62
2017-11-01T21:01:06.796Z,8.61
2017-11-01T21:03:38.893Z,8.61
2017-11-01T21:06:14.438Z,8.52
2017-11-01T21:08:53.341Z,8.44
2017-11-01T21:11:29.025Z,8.49
2017-11-01T21:14:05.039Z,8.52
2017-11-01T21:16:56.982Z,8.35
2017-11-01T21:19:35.390Z,8.50
2017-11-01T21:22:26.456Z,8.58
2017-11-01T21:25:43.839Z,8.65
2017-11-01T21:28:17.445Z,8.64
2017-11-01T21:30:55.869Z,8.66
2017-11-01T21:33:40.641Z,8.76
2017-11-01T21:36:14.943Z,8.86
2017-11-01T21:38:48.550Z,8.93
2017-11-01T21:41:32.214Z,8.89
2017-11-01T21:44:07.397Z,8.95
2017-11-01T21:46:47.268Z,9.03
2017-11-01T21:49:48.757Z,9.01
2017-11-01T21:52:22.480Z,9.02
2017-11-01T21:54:54.944Z,8.99
2017-11-01T21:57:26.672Z,9.01
2017-11-01T21:59:57.843Z,9.04
2017-11-01T22:02:33.808Z,9.07
2017-11-01T22:05:07.982Z,9.04
2017-11-01T22:07:39.096Z,9.07
2017-11-01T22:10:11.875Z,9.09
2017-11-01T22:12:43.207Z,9.10
2017-11-01T22:15:14.879Z,9.09
2017-11-01T22:17:46.725Z,9.12
2017-11-01T22:20:17.717Z,9.12
2017-11-01T22:22:48.866Z,9.13
2017-11-01T22:25:23.285Z,9.16
2017-11-01T22:27:53.882Z,9.15
2017-11-01T22:30:28.085Z,9.15
2017-11-01T22:33:03.536Z,9.20
2017-11-01T22:35:35.418Z,9.18
2017-11-01T22:38:08.167Z,9.13
2017-11-01T22:43:19.487Z,9.08
2017-11-01T22:45:52.468Z,9.03
2017-11-01T22:48:23.910Z,9.01
2017-11-01T22:51:02.979Z,9.00
2017-11-01T22:53:34.690Z,8.96
2017-11-01T22:56:06.029Z,8.99
2017-11-01T22:58:37.602Z,9.03
2017-11-01T23:01:12.087Z,9.07
2017-11-01T23:03:43.342Z,9.09
2017-11-01T23:06:15.454Z,9.12
2017-11-01T23:08:50.288Z,9.14
2017-11-01T23:11:22.971Z,9.17
2017-11-01T23:13:55.149Z,9.12
2017-11-01T23:16:29.290Z,9.12
2017-11-01T23:19:02.817Z,9.09
2017-11-01T23:21:34.821Z,9.12
2017-11-01T23:24:06.473Z,9.12
2017-11-01T23:26:37.879Z,8.96
2017-11-01T23:29:11.881Z,8.95
2017-11-01T23:31:42.946Z,8.98
2017-11-01T23:34:13.527Z,8.87
2017-11-01T23:36:44.564Z,8.82
2017-11-01T23:39:15.843Z,8.81
2017-11-01T23:41:46.476Z,8.95
2017-11-01T23:44:17.411Z,8.81
2017-11-01T23:46:48.553Z,8.74
2017-11-01T23:49:19.476Z,8.75
2017-11-01T23:51:52.616Z,8.65
2017-11-01T23:54:23.604Z,8.46
2017-11-01T23:56:54.352Z,8.51
2017-11-01T23:59:25.475Z,8.52
